createdAt,value
2023-02-28T00:00:18.912Z,9.4
2023-02-28T00:01:35.212Z,9.9
2023-02-28T00:02:51.490Z,9.2
2023-02-28T00:04:07.796Z,10.7
2023-02-28T00:05:24.082Z,9.2
2023-02-28T00:06:40.378Z,8
2023-02-28T00:07:56.679Z,10
2023-02-28T00:09:12.973Z,9.9
2023-02-28T00:10:28.279Z,8.7
2023-02-28T00:11:44.579Z,10
2023-02-28T00:13:00.871Z,7.9
2023-02-28T00:14:17.156Z,9.8
2023-02-28T00:15:33.459Z,9.9
2023-02-28T00:16:49.746Z,8.2
2023-02-28T00:18:06.033Z,7.9
2023-02-28T00:19:22.341Z,9.4
2023-02-28T00:20:38.639Z,9.1
2023-02-28T00:21:54.915Z,8.1
2023-02-28T00:23:11.217Z,9.9
2023-02-28T00:24:27.522Z,7.9
2023-02-28T00:25:43.803Z,11.4
2023-02-28T00:26:59.112Z,8.7
2023-02-28T00:28:15.408Z,8.6
2023-02-28T00:29:31.713Z,8.6
2023-02-28T00:30:48.002Z,10
2023-02-28T00:32:04.294Z,9.2
2023-02-28T00:33:20.580Z,8.8
2023-02-28T00:34:36.876Z,8.6
2023-02-28T00:35:53.184Z,10
2023-02-28T00:37:09.458Z,8.4
2023-02-28T00:38:25.757Z,9
2023-02-28T00:39:42.048Z,8
2023-02-28T00:40:58.350Z,8.2
2023-02-28T00:42:14.643Z,10.3
2023-02-28T00:43:29.949Z,9.9
2023-02-28T00:44:46.240Z,8.4
2023-02-28T00:46:02.548Z,8.9
2023-02-28T00:47:18.857Z,8.4
2023-02-28T00:48:35.133Z,9.4
2023-02-28T00:49:51.426Z,13.1
2023-02-28T00:51:06.739Z,8.8
2023-02-28T00:52:23.038Z,8.3
2023-02-28T00:53:39.320Z,9.4
2023-02-28T00:54:55.627Z,9.8
2023-02-28T00:56:11.914Z,8.8
2023-02-28T00:57:28.213Z,12.2
2023-02-28T00:58:44.512Z,8.7
2023-02-28T01:00:00.803Z,9.1
2023-02-28T01:01:17.084Z,7.9
2023-02-28T01:02:33.383Z,7.9
2023-02-28T01:03:49.686Z,11.2
2023-02-28T01:05:05.968Z,11.1
2023-02-28T01:06:22.265Z,8
2023-02-28T01:07:37.573Z,8.7
2023-02-28T01:08:53.882Z,10.2
2023-02-28T01:10:10.168Z,11
2023-02-28T01:11:26.454Z,9.8
2023-02-28T01:12:42.759Z,9.8
2023-02-28T01:13:59.040Z,8.9
2023-02-28T01:15:15.342Z,9.8
2023-02-28T01:16:31.635Z,9.5
2023-02-28T01:17:47.936Z,8.2
2023-02-28T01:19:04.237Z,7.9
2023-02-28T01:20:20.522Z,9.3
2023-02-28T01:21:36.816Z,10.2
2023-02-28T01:22:53.108Z,8.7
2023-02-28T01:24:08.411Z,9.8
2023-02-28T01:25:24.721Z,10
2023-02-28T01:26:41.005Z,7.8
2023-02-28T01:27:57.307Z,9
2023-02-28T01:29:13.584Z,10.9
2023-02-28T01:30:29.897Z,8.6
2023-02-28T01:31:46.183Z,8.2
2023-02-28T01:33:02.469Z,7.8
2023-02-28T01:34:18.769Z,8.8
2023-02-28T01:35:35.072Z,8
2023-02-28T01:36:51.360Z,8.8
2023-02-28T01:38:07.664Z,8.9
2023-02-28T01:39:23.955Z,6.7
2023-02-28T01:40:39.268Z,8.8
2023-02-28T01:41:55.555Z,11
2023-02-28T01:43:11.843Z,8.2
2023-02-28T01:44:28.149Z,8.4
2023-02-28T01:45:44.442Z,8.8
2023-02-28T01:47:00.726Z,10.1
2023-02-28T01:48:17.016Z,8.8
2023-02-28T01:49:33.327Z,10.3
2023-02-28T01:50:49.617Z,11.5
2023-02-28T01:52:05.910Z,9.1
2023-02-28T01:53:22.189Z,8.1
2023-02-28T01:54:38.493Z,8.5
2023-02-28T01:55:54.778Z,8.1
2023-02-28T01:57:10.094Z,9.1
2023-02-28T01:58:26.384Z,8.8
2023-02-28T01:59:42.675Z,8.4
2023-02-28T02:00:58.978Z,7.9
2023-02-28T02:02:15.270Z,8.3
2023-02-28T02:03:31.575Z,8.4
2023-02-28T02:04:47.863Z,7.9
2023-02-28T02:06:04.145Z,8.5
2023-02-28T02:07:20.442Z,9
2023-02-28T02:08:36.750Z,9.7
2023-02-28T02:09:53.029Z,8.5
2023-02-28T02:11:09.325Z,8.4
2023-02-28T02:12:25.615Z,11.1
2023-02-28T02:13:40.934Z,7.8
2023-02-28T02:14:57.222Z,6.6
2023-02-28T02:16:13.517Z,8.2
2023-02-28T02:17:29.828Z,9.4
2023-02-28T02:18:46.107Z,8.6
2023-02-28T02:20:02.406Z,8.2
2023-02-28T02:21:18.708Z,8.2
2023-02-28T02:22:34.995Z,7.6
2023-02-28T02:23:51.299Z,8.9
2023-02-28T02:25:07.589Z,7.8
2023-02-28T02:26:23.879Z,9.9
2023-02-28T02:27:40.163Z,9
2023-02-28T02:28:56.458Z,8.3
2023-02-28T02:30:11.778Z,8.7
2023-02-28T02:31:28.072Z,7.2
2023-02-28T02:32:44.366Z,7.9
2023-02-28T02:34:00.652Z,8
2023-02-28T02:35:16.955Z,8.9
2023-02-28T02:36:33.239Z,10.1
2023-02-28T02:37:49.537Z,9.7
2023-02-28T02:39:05.842Z,7.9
2023-02-28T02:40:22.139Z,8.9
2023-02-28T02:41:38.415Z,8.6
2023-02-28T02:42:54.709Z,9.5
2023-02-28T02:44:11.011Z,7.6
2023-02-28T02:45:27.299Z,8
2023-02-28T02:46:42.629Z,9.7
2023-02-28T02:47:58.911Z,7.7
2023-02-28T02:49:15.195Z,8.5
2023-02-28T02:50:31.506Z,9.5
2023-02-28T02:51:47.793Z,8
2023-02-28T02:53:04.079Z,9.6
2023-02-28T02:54:20.392Z,8.9
2023-02-28T02:55:36.671Z,7.3
2023-02-28T02:56:52.961Z,9.3
2023-02-28T02:58:09.270Z,7.7
2023-02-28T02:59:25.562Z,10.1
2023-02-28T03:00:41.851Z,7.4
2023-02-28T03:01:58.155Z,9.3
2023-02-28T03:03:13.455Z,7.4
2023-02-28T03:04:29.760Z,10.3
2023-02-28T03:05:46.052Z,10
2023-02-28T03:07:02.329Z,8.9
2023-02-28T03:08:18.626Z,9.3
2023-02-28T03:09:34.937Z,8.8
2023-02-28T03:10:51.218Z,8.9
2023-02-28T03:12:07.521Z,9.1
2023-02-28T03:13:23.807Z,8.7
2023-02-28T03:14:40.109Z,9.4
2023-02-28T03:15:56.402Z,8.7
2023-02-28T03:17:12.681Z,9.6
2023-02-28T03:18:29.000Z,11.2
2023-02-28T03:19:44.305Z,9.4
2023-02-28T03:21:00.582Z,10.4
2023-02-28T03:22:16.879Z,8
2023-02-28T03:23:33.178Z,8.8
2023-02-28T03:24:49.485Z,8.1
2023-02-28T03:26:05.760Z,8.8
2023-02-28T03:27:22.068Z,10.9
2023-02-28T03:28:38.355Z,9.5
2023-02-28T03:29:54.639Z,11.5
2023-02-28T03:31:10.943Z,11.2
2023-02-28T03:32:27.240Z,8.6
2023-02-28T03:33:43.543Z,8
2023-02-28T03:34:59.829Z,9.5
2023-02-28T03:36:15.128Z,11
2023-02-28T03:37:31.431Z,8.5
2023-02-28T03:38:47.721Z,8.4
2023-02-28T03:40:04.024Z,9
2023-02-28T03:41:20.315Z,9.5
2023-02-28T03:42:36.607Z,8.6
2023-02-28T03:43:52.899Z,9
2023-02-28T03:45:09.203Z,8.4
2023-02-28T03:46:25.494Z,7.5
2023-02-28T03:47:41.802Z,8.1
2023-02-28T03:48:58.073Z,8.7
2023-02-28T03:50:14.380Z,8
2023-02-28T03:51:30.673Z,9
2023-02-28T03:52:45.972Z,9.5
2023-02-28T03:54:02.276Z,9.7
2023-02-28T03:55:18.558Z,10
2023-02-28T03:56:34.868Z,10.5
2023-02-28T03:57:51.157Z,8.9
2023-02-28T03:59:07.441Z,9.9
2023-02-28T04:00:23.754Z,8.2
2023-02-28T04:01:40.042Z,9.6
2023-02-28T04:02:56.322Z,8.2
2023-02-28T04:04:12.616Z,8.8
2023-02-28T04:05:28.921Z,10.5
2023-02-28T04:06:45.206Z,9.9
2023-02-28T04:08:01.507Z,9.2
2023-02-28T04:09:16.808Z,11.6
2023-02-28T04:10:33.122Z,9.2
2023-02-28T04:11:49.406Z,9.3
2023-02-28T04:13:05.690Z,9.4
2023-02-28T04:14:22.000Z,8.9
2023-02-28T04:15:38.285Z,11
2023-02-28T04:16:54.586Z,9.7
2023-02-28T04:18:10.869Z,8.3
2023-02-28T04:19:27.172Z,9.6
2023-02-28T04:20:43.455Z,12.1
2023-02-28T04:21:59.768Z,11.2
2023-02-28T04:23:16.051Z,12.8
2023-02-28T04:24:32.355Z,13.2
2023-02-28T04:25:47.674Z,11.5
2023-02-28T04:27:03.952Z,15.7
2023-02-28T04:28:20.242Z,10.9
2023-02-28T04:29:36.534Z,13.6
2023-02-28T04:30:52.838Z,12.2
2023-02-28T04:32:09.120Z,11.7
2023-02-28T04:33:25.423Z,11.3
2023-02-28T04:34:41.719Z,12.5
2023-02-28T04:35:58.001Z,11.8
2023-02-28T04:37:14.315Z,10.3
2023-02-28T04:38:30.610Z,10
2023-02-28T04:39:46.902Z,10.1
2023-02-28T04:41:03.177Z,9.3
2023-02-28T04:42:18.503Z,11
2023-02-28T04:43:34.781Z,11.2
2023-02-28T04:44:51.087Z,10.7
2023-02-28T04:46:07.382Z,9.2
2023-02-28T04:47:23.666Z,9.2
2023-02-28T04:48:39.959Z,9
2023-02-28T04:49:56.271Z,9.2
2023-02-28T04:51:12.573Z,11.4
2023-02-28T04:52:28.845Z,12.1
2023-02-28T04:53:45.146Z,11.2
2023-02-28T04:55:01.430Z,9.4
2023-02-28T04:56:17.730Z,8.6
2023-02-28T04:57:34.032Z,11.2
2023-02-28T04:58:49.346Z,12.5
2023-02-28T05:00:05.628Z,11.9
2023-02-28T05:01:21.945Z,11.4
2023-02-28T05:02:38.221Z,13
2023-02-28T05:03:54.523Z,10.1
2023-02-28T05:05:10.800Z,10.1
2023-02-28T05:06:26.117Z,8.2
2023-02-28T05:07:42.410Z,9.4
2023-02-28T05:08:58.719Z,7.8
2023-02-28T05:10:15.009Z,9.5
2023-02-28T05:11:31.297Z,9.6
2023-02-28T05:12:47.604Z,8.1
2023-02-28T05:14:03.886Z,9.8
2023-02-28T05:15:20.188Z,9.7
2023-02-28T05:16:36.479Z,9.6
2023-02-28T05:17:52.777Z,10.8
2023-02-28T05:19:09.069Z,10.4
2023-02-28T05:20:25.356Z,9.3
2023-02-28T05:21:41.656Z,9.4
2023-02-28T05:22:56.960Z,8.8
2023-02-28T05:24:13.250Z,9.6
2023-02-28T05:25:29.560Z,11.3
2023-02-28T05:26:45.854Z,14.2
2023-02-28T05:28:02.153Z,9.3
2023-02-28T05:29:18.379Z,11.2
2023-02-28T05:30:34.680Z,9
2023-02-28T05:31:50.935Z,10.5
2023-02-28T05:33:07.173Z,9.4
2023-02-28T05:34:23.457Z,10.5
2023-02-28T05:35:39.705Z,10
2023-02-28T05:36:55.955Z,8.9
2023-02-28T05:38:12.255Z,9.3
2023-02-28T05:39:27.552Z,10.7
2023-02-28T05:40:43.812Z,10
2023-02-28T05:42:00.043Z,9.5
2023-02-28T05:43:16.281Z,11
2023-02-28T05:44:32.533Z,12.8
2023-02-28T05:45:48.772Z,9.6
2023-02-28T05:47:05.018Z,11.3
2023-02-28T05:48:21.240Z,11.4
2023-02-28T05:49:37.486Z,11.4
2023-02-28T05:50:53.720Z,10.5
2023-02-28T05:52:09.970Z,10.4
2023-02-28T05:53:26.203Z,10.2
2023-02-28T05:54:42.448Z,10.3
2023-02-28T05:55:57.714Z,10.2
2023-02-28T05:57:13.947Z,9.7
2023-02-28T05:58:30.190Z,11.4
2023-02-28T05:59:46.429Z,10.7
2023-02-28T06:01:02.674Z,12.4
2023-02-28T06:02:18.906Z,9.8
2023-02-28T06:03:35.150Z,9.9
2023-02-28T06:04:51.384Z,10.3
2023-02-28T06:06:07.637Z,10.9
2023-02-28T06:07:23.876Z,10.6
2023-02-28T06:08:40.114Z,10.7
2023-02-28T06:09:56.353Z,10
2023-02-28T06:11:12.581Z,10.2
2023-02-28T06:12:27.860Z,10.3
2023-02-28T06:13:44.089Z,9.3
2023-02-28T06:15:00.320Z,11.1
2023-02-28T06:16:16.555Z,13.2
2023-02-28T06:17:32.813Z,11.1
2023-02-28T06:18:49.039Z,12.8
2023-02-28T06:20:05.280Z,10.2
2023-02-28T06:21:21.538Z,10.8
2023-02-28T06:22:37.766Z,12.7
2023-02-28T06:23:53.999Z,10.6
2023-02-28T06:25:10.250Z,10.6
2023-02-28T06:26:26.485Z,9.7
2023-02-28T06:27:42.720Z,10.5
2023-02-28T06:28:57.986Z,13
2023-02-28T06:30:14.229Z,9.7
2023-02-28T06:31:30.476Z,9.5
2023-02-28T06:32:46.721Z,9.9
2023-02-28T06:34:02.949Z,26.2
2023-02-28T06:35:19.193Z,12.9
2023-02-28T06:36:35.426Z,13.8
2023-02-28T06:37:51.688Z,9.7
2023-02-28T06:39:07.917Z,9.5
2023-02-28T06:40:24.146Z,12.3
2023-02-28T06:41:40.398Z,14.4
2023-02-28T06:42:56.621Z,14.2
2023-02-28T06:44:12.861Z,11.8
2023-02-28T06:45:28.127Z,9.6
2023-02-28T06:46:44.371Z,12
2023-02-28T06:48:00.606Z,13.6
2023-02-28T06:49:16.853Z,15.8
2023-02-28T06:50:33.074Z,16.3
2023-02-28T06:51:49.317Z,15.6
2023-02-28T06:53:05.570Z,16.6
2023-02-28T06:54:21.812Z,16.6
2023-02-28T06:55:38.046Z,15.5
2023-02-28T06:56:54.279Z,16.8
2023-02-28T06:58:10.544Z,13.9
2023-02-28T06:59:26.781Z,16.5
2023-02-28T07:00:43.017Z,13.9
2023-02-28T07:01:58.273Z,13.6
2023-02-28T07:03:14.505Z,15.4
2023-02-28T07:04:30.751Z,11.9
2023-02-28T07:05:46.992Z,11.8
2023-02-28T07:07:03.232Z,14.1
2023-02-28T07:08:19.468Z,12.6
2023-02-28T07:09:35.700Z,13.3
2023-02-28T07:10:51.957Z,14.6
2023-02-28T07:12:08.181Z,12.4
2023-02-28T07:13:24.428Z,11.4
2023-02-28T07:14:40.663Z,12.2
2023-02-28T07:15:56.904Z,10.4
2023-02-28T07:17:13.150Z,11.8
2023-02-28T07:18:28.405Z,12.8
2023-02-28T07:19:44.641Z,12.3
2023-02-28T07:21:00.881Z,11.7
2023-02-28T07:22:17.147Z,12.9
2023-02-28T07:23:33.365Z,12.1
2023-02-28T07:24:49.612Z,13.9
2023-02-28T07:26:05.854Z,13.6
2023-02-28T07:27:22.088Z,18.5
2023-02-28T07:28:38.335Z,12.2
2023-02-28T07:29:54.575Z,14.2
2023-02-28T07:31:10.815Z,13.6
2023-02-28T07:32:27.043Z,15.2
2023-02-28T07:33:43.284Z,11.8
2023-02-28T07:34:58.550Z,11.5
2023-02-28T07:36:14.786Z,13.4
2023-02-28T07:37:31.028Z,12
2023-02-28T07:38:47.257Z,15
2023-02-28T07:40:03.498Z,15.3
2023-02-28T07:41:19.736Z,11.2
2023-02-28T07:42:35.984Z,11.7
2023-02-28T07:43:52.232Z,12.9
2023-02-28T07:45:08.456Z,12.3
2023-02-28T07:46:24.713Z,11.8
2023-02-28T07:47:40.935Z,13.5
2023-02-28T07:48:57.181Z,13.3
2023-02-28T07:50:13.432Z,14.8
2023-02-28T07:51:28.685Z,13.4
2023-02-28T07:52:44.917Z,11.6
2023-02-28T07:54:01.161Z,13.4
2023-02-28T07:55:17.410Z,13.3
2023-02-28T07:56:33.648Z,12.7
2023-02-28T07:57:49.886Z,13.6
2023-02-28T07:59:06.141Z,12.7
2023-02-28T08:00:22.366Z,14.2
2023-02-28T08:01:38.599Z,12.1
2023-02-28T08:02:54.852Z,11.7
2023-02-28T08:04:11.082Z,10
2023-02-28T08:05:27.318Z,12.2
2023-02-28T08:06:43.568Z,10.6
2023-02-28T08:07:58.817Z,10.8
2023-02-28T08:09:15.049Z,10.5
2023-02-28T08:10:31.293Z,19
2023-02-28T08:11:47.542Z,18.5
2023-02-28T08:13:03.782Z,13
2023-02-28T08:14:20.017Z,10.3
2023-02-28T08:15:36.257Z,10.5
2023-02-28T08:16:52.512Z,12.6
2023-02-28T08:18:08.735Z,10.6
2023-02-28T08:19:24.987Z,10.9
2023-02-28T08:20:41.213Z,13
2023-02-28T08:21:57.455Z,12.8
2023-02-28T08:23:13.713Z,11.9
2023-02-28T08:24:28.948Z,10.5
2023-02-28T08:25:45.204Z,9.1
2023-02-28T08:27:01.432Z,10.7
2023-02-28T08:28:17.689Z,8.5
2023-02-28T08:29:33.928Z,9.9
2023-02-28T08:30:50.162Z,10.6
2023-02-28T08:32:06.392Z,10
2023-02-28T08:33:22.648Z,10.2
2023-02-28T08:34:38.885Z,10.2
2023-02-28T08:35:55.114Z,13.1
2023-02-28T08:37:11.352Z,10.4
2023-02-28T08:38:27.602Z,9.8
2023-02-28T08:39:43.840Z,10.8
2023-02-28T08:40:59.092Z,10.8
2023-02-28T08:42:15.330Z,12.6
2023-02-28T08:43:31.586Z,8.8
2023-02-28T08:44:47.813Z,8.8
2023-02-28T08:46:04.060Z,11.6
2023-02-28T08:47:20.292Z,10.4
2023-02-28T08:48:36.532Z,10.3
2023-02-28T08:49:52.777Z,9.8
2023-02-28T08:51:09.011Z,9
2023-02-28T08:52:25.250Z,10.4
2023-02-28T08:53:41.499Z,10.1
2023-02-28T08:54:57.747Z,8.9
2023-02-28T08:56:13.979Z,12.2
2023-02-28T08:57:29.243Z,10.5
2023-02-28T08:58:45.482Z,10.4
2023-02-28T09:00:01.720Z,9.5
2023-02-28T09:01:17.945Z,8.7
2023-02-28T09:02:34.195Z,8.4
2023-02-28T09:03:50.439Z,9.1
2023-02-28T09:05:06.671Z,10.5
2023-02-28T09:06:22.923Z,10.3
2023-02-28T09:07:39.161Z,9.9
2023-02-28T09:08:55.391Z,10
2023-02-28T09:10:11.630Z,9.9
2023-02-28T09:11:27.879Z,8.7
2023-02-28T09:12:44.114Z,9
2023-02-28T09:13:59.373Z,10.4
2023-02-28T09:15:15.613Z,10
2023-02-28T09:16:31.845Z,9.6
2023-02-28T09:17:48.090Z,9.3
2023-02-28T09:19:04.338Z,9.9
2023-02-28T09:20:20.571Z,9
2023-02-28T09:21:35.830Z,10.9
2023-02-28T09:22:52.078Z,9.1
2023-02-28T09:24:08.303Z,11.4
2023-02-28T09:25:24.543Z,10.3
2023-02-28T09:26:40.788Z,10.6
2023-02-28T09:27:57.022Z,10.6
2023-02-28T09:29:13.272Z,8.5
2023-02-28T09:30:29.507Z,10.3
2023-02-28T09:31:45.742Z,8.1
2023-02-28T09:33:01.989Z,9.5
2023-02-28T09:34:18.238Z,10.9
2023-02-28T09:35:34.466Z,9.7
2023-02-28T09:36:50.711Z,9.8
2023-02-28T09:38:05.977Z,9.5
2023-02-28T09:39:22.200Z,10.1
2023-02-28T09:40:38.438Z,11.9
2023-02-28T09:41:54.693Z,10.7
2023-02-28T09:43:10.921Z,11.3
2023-02-28T09:44:27.159Z,9.8
2023-02-28T09:45:43.401Z,8.1
2023-02-28T09:46:59.657Z,9.2
2023-02-28T09:48:15.880Z,8.2
2023-02-28T09:49:32.122Z,8.1
2023-02-28T09:50:48.375Z,7.9
2023-02-28T09:52:04.611Z,8.9
2023-02-28T09:53:20.844Z,8.6
2023-02-28T09:54:36.106Z,8.5
2023-02-28T09:55:52.347Z,10.1
2023-02-28T09:57:08.586Z,10.3
2023-02-28T09:58:24.818Z,8.1
2023-02-28T09:59:41.054Z,10
2023-02-28T10:00:57.293Z,8.2
2023-02-28T10:02:13.543Z,7.8
2023-02-28T10:03:29.780Z,9.6
2023-02-28T10:04:46.012Z,8.7
2023-02-28T10:06:02.256Z,12.5
2023-02-28T10:07:18.500Z,9.3
2023-02-28T10:08:34.740Z,9.8
2023-02-28T10:09:50.982Z,10.5
2023-02-28T10:11:06.241Z,8.4
2023-02-28T10:12:22.470Z,9.1
2023-02-28T10:13:38.721Z,9.4
2023-02-28T10:14:54.966Z,9.2
2023-02-28T10:16:11.192Z,8.3
2023-02-28T10:17:27.441Z,8.4
2023-02-28T10:18:43.675Z,9.9
2023-02-28T10:19:59.914Z,10.4
2023-02-28T10:21:16.151Z,9.7
2023-02-28T10:22:32.395Z,8.1
2023-02-28T10:23:48.647Z,7.8
2023-02-28T10:25:04.876Z,8.4
2023-02-28T10:26:21.113Z,9.5
2023-02-28T10:27:36.368Z,11.5
2023-02-28T10:28:52.613Z,7.9
2023-02-28T10:30:08.852Z,11.1
2023-02-28T10:31:25.086Z,9.6
2023-02-28T10:32:41.329Z,7.9
2023-02-28T10:33:57.572Z,7.1
2023-02-28T10:35:13.805Z,9.3
2023-02-28T10:36:30.042Z,9.4
2023-02-28T10:37:46.296Z,7.6
2023-02-28T10:39:02.528Z,10.2
2023-02-28T10:40:18.765Z,9.6
2023-02-28T10:41:35.004Z,10
2023-02-28T10:42:51.255Z,8.2
2023-02-28T10:44:06.505Z,11.7
2023-02-28T10:45:22.741Z,9.6
2023-02-28T10:46:38.984Z,9
2023-02-28T10:47:55.224Z,10.5
2023-02-28T10:49:11.455Z,8.8
2023-02-28T10:50:27.703Z,10.5
2023-02-28T10:51:43.936Z,11.3
2023-02-28T10:53:00.178Z,12.2
2023-02-28T10:54:16.421Z,9.6
2023-02-28T10:55:32.659Z,9
2023-02-28T10:56:48.902Z,10.8
2023-02-28T10:58:05.138Z,9.9
2023-02-28T10:59:21.384Z,8.4
2023-02-28T11:00:36.631Z,11.2
2023-02-28T11:01:52.871Z,8.9
2023-02-28T11:03:09.116Z,9
2023-02-28T11:04:25.351Z,10.8
2023-02-28T11:05:41.587Z,10.1
2023-02-28T11:06:57.837Z,9.2
2023-02-28T11:08:14.066Z,11.8
2023-02-28T11:09:30.314Z,12.1
2023-02-28T11:10:46.562Z,10.6
2023-02-28T11:12:02.808Z,8.3
2023-02-28T11:13:19.031Z,11.1
2023-02-28T11:14:35.268Z,8.8
2023-02-28T11:15:51.516Z,9.7
2023-02-28T11:17:06.778Z,9.8
2023-02-28T11:18:23.001Z,11.6
2023-02-28T11:19:39.244Z,8.9
2023-02-28T11:20:55.496Z,9.1
2023-02-28T11:22:11.730Z,11
2023-02-28T11:23:27.974Z,10.6
2023-02-28T11:24:44.206Z,11.8
2023-02-28T11:26:00.447Z,9.6
2023-02-28T11:27:16.695Z,11.6
2023-02-28T11:28:32.938Z,9.8
2023-02-28T11:29:49.173Z,9.6
2023-02-28T11:31:05.415Z,9.7
2023-02-28T11:32:21.645Z,11.4
2023-02-28T11:33:36.906Z,9.5
2023-02-28T11:34:53.150Z,9
2023-02-28T11:36:09.384Z,12.7
2023-02-28T11:37:25.639Z,10.8
2023-02-28T11:38:41.858Z,9.3
2023-02-28T11:39:58.099Z,10.1
2023-02-28T11:41:14.343Z,9.3
2023-02-28T11:42:30.590Z,10.6
2023-02-28T11:43:46.822Z,9.7
2023-02-28T11:45:03.065Z,9.4
2023-02-28T11:46:19.308Z,10.4
2023-02-28T11:47:35.545Z,9.8
2023-02-28T11:48:51.790Z,10.9
2023-02-28T11:50:07.050Z,10.5
2023-02-28T11:51:23.284Z,9.4
2023-02-28T11:52:39.529Z,12.5
2023-02-28T11:53:55.769Z,10.4
2023-02-28T11:55:11.995Z,11.7
2023-02-28T11:56:28.243Z,11.5
2023-02-28T11:57:44.492Z,11.8
2023-02-28T11:59:00.728Z,11
2023-02-28T12:00:16.971Z,10.8
2023-02-28T12:01:33.202Z,12.3
2023-02-28T12:02:49.453Z,10.9
2023-02-28T12:04:05.694Z,10.7
2023-02-28T12:05:21.930Z,13
2023-02-28T12:06:37.191Z,11.5
2023-02-28T12:07:53.421Z,12.6
2023-02-28T12:09:09.651Z,12
2023-02-28T12:10:25.893Z,10.8
2023-02-28T12:11:42.131Z,12.9
2023-02-28T12:12:58.379Z,10.8
2023-02-28T12:14:14.616Z,12.9
2023-02-28T12:15:30.858Z,12.8
2023-02-28T12:16:47.102Z,14.8
2023-02-28T12:18:03.331Z,13.3
2023-02-28T12:19:19.580Z,12.7
2023-02-28T12:20:35.811Z,13.3
2023-02-28T12:21:52.059Z,12.4
2023-02-28T12:23:07.327Z,14.1
2023-02-28T12:24:23.566Z,11.9
2023-02-28T12:25:39.793Z,11.7
2023-02-28T12:26:56.028Z,12.9
2023-02-28T12:28:12.287Z,10.7
2023-02-28T12:29:28.512Z,11.1
2023-02-28T12:30:44.754Z,12.1
2023-02-28T12:32:00.987Z,12.8
2023-02-28T12:33:17.229Z,13
2023-02-28T12:34:33.481Z,11.8
2023-02-28T12:35:49.721Z,10.9
2023-02-28T12:37:05.967Z,12.6
2023-02-28T12:38:22.188Z,12.6
2023-02-28T12:39:37.462Z,12.7
2023-02-28T12:40:53.697Z,13
2023-02-28T12:42:09.937Z,13.5
2023-02-28T12:43:26.180Z,15
2023-02-28T12:44:42.420Z,12
2023-02-28T12:45:58.650Z,12.1
2023-02-28T12:47:14.894Z,13.4
2023-02-28T12:48:31.124Z,14.7
2023-02-28T12:49:47.367Z,12.1
2023-02-28T12:51:03.607Z,12.4
2023-02-28T12:52:19.848Z,12.1
2023-02-28T12:53:36.088Z,12.9
2023-02-28T12:54:52.325Z,13.9
2023-02-28T12:56:07.591Z,14.5
2023-02-28T12:57:23.833Z,13.1
2023-02-28T12:58:40.063Z,15.2
2023-02-28T12:59:56.311Z,14.1
2023-02-28T13:01:12.538Z,10.7
2023-02-28T13:02:28.790Z,14.4
2023-02-28T13:03:45.012Z,14.2
2023-02-28T13:05:01.260Z,11.8
2023-02-28T13:06:17.495Z,12
2023-02-28T13:07:33.747Z,13.8
2023-02-28T13:10:06.224Z,12.7
2023-02-28T13:11:22.461Z,14.4
2023-02-28T13:12:37.704Z,11.7
2023-02-28T13:13:53.956Z,11.3
2023-02-28T13:15:10.187Z,10.2
2023-02-28T13:16:26.431Z,13
2023-02-28T13:17:42.674Z,13.8
2023-02-28T13:18:58.904Z,11.2
2023-02-28T13:20:15.155Z,10.6
2023-02-28T13:21:31.386Z,13.3
2023-02-28T13:22:47.628Z,12.3
2023-02-28T13:24:03.857Z,11.6
2023-02-28T13:25:20.095Z,11.8
2023-02-28T13:26:36.348Z,12.6
2023-02-28T13:27:52.585Z,12.8
2023-02-28T13:29:07.827Z,13.9
2023-02-28T13:30:24.079Z,13.5
2023-02-28T13:31:40.322Z,13.4
2023-02-28T13:32:56.553Z,12.5
2023-02-28T13:34:12.794Z,12.2
2023-02-28T13:35:29.020Z,10.2
2023-02-28T13:36:44.289Z,11.4
2023-02-28T13:38:00.529Z,12.2
2023-02-28T13:39:16.771Z,14.5
2023-02-28T13:40:33.003Z,17.8
2023-02-28T13:41:49.248Z,11.8
2023-02-28T13:43:05.493Z,15
2023-02-28T13:44:21.732Z,13.9
2023-02-28T13:45:37.969Z,13.6
2023-02-28T13:46:54.200Z,11.3
2023-02-28T13:48:10.451Z,10.7
2023-02-28T13:49:26.687Z,11.9
2023-02-28T13:50:42.919Z,14.6
2023-02-28T13:51:59.150Z,13.7
2023-02-28T13:53:14.416Z,10.9
2023-02-28T13:54:30.665Z,13.3
2023-02-28T13:55:46.899Z,13.4
2023-02-28T13:57:03.134Z,12.9
2023-02-28T13:58:19.361Z,14.2
2023-02-28T13:59:35.605Z,13.2
2023-02-28T14:00:51.850Z,13.7
2023-02-28T14:02:08.087Z,11.9
2023-02-28T14:03:24.312Z,12.2
2023-02-28T14:04:40.575Z,11.9
2023-02-28T14:05:56.792Z,11.3
2023-02-28T14:07:13.044Z,13.6
2023-02-28T14:08:29.287Z,11.3
2023-02-28T14:09:44.533Z,11.7
2023-02-28T14:11:00.763Z,13.5
2023-02-28T14:12:17.016Z,12
2023-02-28T14:13:33.244Z,12.6
2023-02-28T14:14:49.486Z,13.6
2023-02-28T14:16:05.717Z,15.5
2023-02-28T14:17:21.980Z,11.4
2023-02-28T14:18:38.194Z,13.2
2023-02-28T14:19:54.441Z,13.2
2023-02-28T14:21:10.672Z,15.2
2023-02-28T14:22:26.911Z,11.4
2023-02-28T14:23:43.156Z,12.2
2023-02-28T14:24:59.394Z,12.7
2023-02-28T14:26:14.641Z,13.5
2023-02-28T14:27:30.889Z,13.3
2023-02-28T14:28:47.133Z,13.2
2023-02-28T14:30:03.375Z,12.4
2023-02-28T14:31:19.597Z,13.7
2023-02-28T14:32:35.843Z,13.5
2023-02-28T14:33:52.080Z,14.8
2023-02-28T14:35:08.329Z,14.8
2023-02-28T14:36:24.553Z,13.4
2023-02-28T14:37:40.796Z,13
2023-02-28T14:38:57.038Z,11.9
2023-02-28T14:40:13.268Z,12.2
2023-02-28T14:41:29.511Z,12.9
2023-02-28T14:42:44.779Z,13.1
2023-02-28T14:44:01.010Z,11.3
2023-02-28T14:45:17.251Z,13.3
2023-02-28T14:46:33.497Z,14.2
2023-02-28T14:47:49.731Z,15.6
2023-02-28T14:49:05.974Z,14.7
2023-02-28T14:50:22.200Z,15
2023-02-28T14:51:38.445Z,10.9
2023-02-28T14:52:54.686Z,13
2023-02-28T14:54:10.909Z,12.9
2023-02-28T14:55:27.149Z,11.1
2023-02-28T14:56:43.401Z,12.5
2023-02-28T14:57:59.642Z,11.6
2023-02-28T14:59:14.900Z,14.7
2023-02-28T15:00:31.124Z,12.4
2023-02-28T15:01:47.368Z,17.7
2023-02-28T15:03:03.614Z,14.9
2023-02-28T15:04:19.848Z,13.3
2023-02-28T15:05:36.072Z,12.4
2023-02-28T15:06:52.312Z,11.7
2023-02-28T15:08:08.567Z,12.6
2023-02-28T15:09:24.808Z,14.2
2023-02-28T15:10:41.036Z,12.2
2023-02-28T15:11:57.266Z,11.9
2023-02-28T15:13:13.505Z,12
2023-02-28T15:14:29.747Z,12.5
2023-02-28T15:15:45.001Z,12.3
2023-02-28T15:17:01.254Z,16.1
2023-02-28T15:18:17.494Z,13.9
2023-02-28T15:19:33.717Z,14.2
2023-02-28T15:20:49.961Z,13.4
2023-02-28T15:22:06.203Z,13.3
2023-02-28T15:23:22.445Z,13.6
2023-02-28T15:24:38.674Z,13.7
2023-02-28T15:25:54.922Z,14.1
2023-02-28T15:27:11.164Z,15.5
2023-02-28T15:28:27.395Z,12.9
2023-02-28T15:29:43.640Z,12.2
2023-02-28T15:30:59.866Z,13.1
2023-02-28T15:32:15.135Z,13.3
2023-02-28T15:33:31.371Z,13.3
2023-02-28T15:34:47.615Z,11.7
2023-02-28T15:36:03.841Z,13.4
2023-02-28T15:38:36.322Z,17
2023-02-28T15:39:52.565Z,15
2023-02-28T15:41:08.807Z,15.6
2023-02-28T15:42:25.039Z,14.9
2023-02-28T15:43:41.283Z,15.6
2023-02-28T15:44:57.514Z,15
2023-02-28T15:46:13.753Z,12.7
2023-02-28T15:47:29.989Z,15
2023-02-28T15:48:45.261Z,14.1
2023-02-28T15:50:01.488Z,13.8
2023-02-28T15:51:17.743Z,13.3
2023-02-28T15:52:33.970Z,14.8
2023-02-28T15:55:06.449Z,16.1
2023-02-28T15:56:22.681Z,13.8
2023-02-28T15:57:38.937Z,11.9
2023-02-28T15:58:55.174Z,11.9
2023-02-28T16:00:11.419Z,14.1
2023-02-28T16:01:27.651Z,13.9
2023-02-28T16:02:43.885Z,14.2
2023-02-28T16:04:00.138Z,13.6
2023-02-28T16:05:15.396Z,11.9
2023-02-28T16:06:31.629Z,15.9
2023-02-28T16:07:47.870Z,16.7
2023-02-28T16:09:04.115Z,23.1
2023-02-28T16:10:20.000Z,21.7
2023-02-28T16:11:36.579Z,30.3
2023-02-28T16:12:52.836Z,27.7
2023-02-28T16:14:09.069Z,25.1
2023-02-28T16:15:25.301Z,24.5
2023-02-28T16:16:41.539Z,22.9
2023-02-28T16:17:57.797Z,20.2
2023-02-28T16:19:14.019Z,22.3
2023-02-28T16:20:30.279Z,18.7
2023-02-28T16:21:45.531Z,19.9
2023-02-28T16:23:01.757Z,18.1
2023-02-28T16:24:17.997Z,17.1
2023-02-28T16:25:34.246Z,19
2023-02-28T16:26:50.489Z,20
2023-02-28T16:28:06.732Z,19.7
2023-02-28T16:29:22.964Z,18.9
2023-02-28T16:30:39.202Z,17.9
2023-02-28T16:31:55.448Z,22.8
2023-02-28T16:33:11.684Z,23.8
2023-02-28T16:34:27.918Z,25.7
2023-02-28T16:35:44.157Z,29.1
2023-02-28T16:37:00.395Z,25.5
2023-02-28T16:38:15.654Z,26.2
2023-02-28T16:39:31.921Z,23.5
2023-02-28T16:40:48.141Z,24.6
2023-02-28T16:42:04.381Z,24.1
2023-02-28T16:43:20.622Z,24.8
2023-02-28T16:44:36.852Z,24.3
2023-02-28T16:45:53.105Z,23.5
2023-02-28T16:47:09.349Z,29.3
2023-02-28T16:48:25.587Z,25.4
2023-02-28T16:49:41.824Z,27.5
2023-02-28T16:50:58.056Z,27.9
2023-02-28T16:52:14.293Z,27.4
2023-02-28T16:53:30.530Z,24
2023-02-28T16:54:45.792Z,28.5
2023-02-28T16:56:02.031Z,25.4
2023-02-28T16:57:18.280Z,25.9
2023-02-28T16:58:34.516Z,25.8
2023-02-28T16:59:50.759Z,24
2023-02-28T17:01:06.996Z,24.3
2023-02-28T17:02:23.230Z,25.7
2023-02-28T17:03:39.478Z,23.1
2023-02-28T17:04:55.717Z,25.3
2023-02-28T17:06:11.957Z,25.8
2023-02-28T17:07:28.195Z,25.2
2023-02-28T17:08:44.426Z,24.5
2023-02-28T17:10:00.678Z,22.7
2023-02-28T17:11:15.933Z,25.1
2023-02-28T17:12:32.181Z,28.8
2023-02-28T17:13:48.418Z,27.4
2023-02-28T17:15:04.661Z,28.2
2023-02-28T17:16:20.950Z,29.4